Time;durP1;ratioP1;P1;durP2;ratioP2;P2;SDS_P1;SDS_P2;PMS_P1;PMS_P2;Temp;Humidity;BMP_temperature;BMP_pressure;BME280_temperature;BME280_humidity;BME280_pressure;Samples;Min_cycle;Max_cycle;Signal;HPM_P1;HPM_P2
2021/07/20 00:00:01;;;;;;;13.68;7.97;;;23.40;94.50;;;;;;6132730;23;20009;-89
2021/07/20 00:02:37;;;;;;;8.48;7.35;;;23.40;94.50;;;;;;6157992;23;20044;-90
2021/07/20 00:05:05;;;;;;;10.77;7.95;;;23.30;94.60;;;;;;6132247;23;20096;-89
2021/07/20 00:07:31;;;;;;;8.55;6.80;;;23.30;94.60;;;;;;6131411;23;20064;-90
2021/07/20 00:09:58;;;;;;;9.77;7.05;;;23.30;94.60;;;;;;6131951;23;20001;-90
2021/07/20 00:12:24;;;;;;;9.15;7.35;;;23.30;94.70;;;;;;6158609;23;20005;-89
2021/07/20 00:14:51;;;;;;;8.60;6.95;;;23.30;94.70;;;;;;6133136;23;20030;-89
2021/07/20 00:17:21;;;;;;;11.60;8.02;;;23.30;94.70;;;;;;6133506;23;20012;-89
2021/07/20 00:19:47;;;;;;;9.23;7.18;;;23.30;94.80;;;;;;6159586;23;20025;-88
2021/07/20 00:22:12;;;;;;;10.95;7.75;;;23.30;94.80;;;;;;6131763;23;20330;-89
2021/07/20 00:24:38;;;;;;;13.52;8.45;;;23.30;94.90;;;;;;6132124;23;20009;-90
2021/07/20 00:27:04;;;;;;;10.18;8.25;;;23.20;95.00;;;;;;6136634;23;19998;-90
2021/07/20 00:29:30;;;;;;;10.88;7.43;;;23.20;95.20;;;;;;6136451;23;20001;-89
2021/07/20 00:31:56;;;;;;;10.23;7.70;;;23.20;95.10;;;;;;6139865;23;20069;-91
2021/07/20 00:34:21;;;;;;;10.07;8.00;;;23.20;95.20;;;;;;6136643;23;20033;-90
2021/07/20 00:36:47;;;;;;;9.82;7.60;;;23.20;95.20;;;;;;6131254;23;20060;-89
2021/07/20 00:39:13;;;;;;;9.23;7.10;;;23.20;95.10;;;;;;6132847;23;20137;-90
2021/07/20 00:41:38;;;;;;;12.25;7.93;;;23.20;95.00;;;;;;6134093;23;20003;-90
2021/07/20 00:44:05;;;;;;;10.60;7.70;;;23.20;95.00;;;;;;6134537;23;20069;-90
2021/07/20 00:46:31;;;;;;;10.93;8.27;;;23.20;95.10;;;;;;6132563;23;20004;-89
2021/07/20 00:48:57;;;;;;;10.32;8.23;;;23.20;95.20;;;;;;6131863;23;20006;-89
2021/07/20 00:51:22;;;;;;;10.77;7.75;;;23.10;95.40;;;;;;6157067;23;20001;-89
2021/07/20 00:53:50;;;;;;;10.10;7.80;;;23.10;95.40;;;;;;6131149;23;20009;-89
2021/07/20 00:56:16;;;;;;;12.90;8.68;;;23.10;95.60;;;;;;6130902;23;20006;-89
2021/07/20 00:58:43;;;;;;;8.38;7.32;;;23.10;95.60;;;;;;6131563;23;20432;-89
2021/07/20 01:01:09;;;;;;;10.77;8.38;;;23.10;95.40;;;;;;6132259;23;20080;-90
2021/07/20 01:03:36;;;;;;;10.13;7.78;;;23.10;95.30;;;;;;6131396;23;20006;-90
2021/07/20 01:06:04;;;;;;;11.10;8.10;;;23.10;95.20;;;;;;6131902;23;20426;-89
2021/07/20 01:08:31;;;;;;;11.00;7.38;;;23.10;95.30;;;;;;6131380;23;20051;-89
2021/07/20 01:11:00;;;;;;;9.63;8.00;;;23.00;95.20;;;;;;6131898;23;20012;-89
2021/07/20 01:13:27;;;;;;;11.65;8.07;;;23.00;95.40;;;;;;6132253;23;20433;-89
2021/07/20 01:15:54;;;;;;;10.98;7.35;;;23.00;95.50;;;;;;6131914;23;20001;-89
2021/07/20 01:18:23;;;;;;;10.25;7.90;;;23.00;95.50;;;;;;6133267;23;20029;-90
2021/07/20 01:20:49;;;;;;;11.57;7.78;;;23.00;95.60;;;;;;6131285;23;20334;-88
2021/07/20 01:23:37;;;;;;;8.68;7.45;;;23.00;95.50;;;;;;6141924;23;20441;-90
2021/07/20 01:26:04;;;;;;;8.90;7.55;;;23.00;95.60;;;;;;6148672;23;20002;-89
2021/07/20 01:28:31;;;;;;;8.68;7.22;;;23.00;95.40;;;;;;6148688;23;20036;-89
2021/07/20 01:31:02;;;;;;;10.45;7.97;;;23.00;95.20;;;;;;6148501;23;20025;-89
2021/07/20 01:33:31;;;;;;;12.52;7.72;;;23.00;95.10;;;;;;6173581;23;20032;-89
2021/07/20 01:36:00;;;;;;;10.25;7.72;;;23.00;94.90;;;;;;6132373;23;20002;-89
2021/07/20 01:38:27;;;;;;;8.32;7.03;;;23.00;94.90;;;;;;6132305;23;20006;-90
2021/07/20 01:40:58;;;;;;;9.55;7.32;;;22.90;94.90;;;;;;6136423;23;20004;-90
2021/07/20 01:43:26;;;;;;;9.73;8.43;;;22.90;94.90;;;;;;6137617;23;20054;-90
2021/07/20 01:45:55;;;;;;;9.23;7.57;;;22.90;95.10;;;;;;6135349;23;20429;-90
2021/07/20 01:48:24;;;;;;;8.65;7.15;;;22.90;95.10;;;;;;6133524;23;20056;-89
2021/07/20 01:50:50;;;;;;;8.43;7.18;;;22.90;95.20;;;;;;6133128;23;20009;-89
2021/07/20 01:53:17;;;;;;;12.55;7.10;;;22.90;95.30;;;;;;6133998;23;20010;-89
2021/07/20 01:55:42;;;;;;;8.52;7.05;;;22.90;95.30;;;;;;6158619;23;20005;-90
2021/07/20 01:58:08;;;;;;;8.50;6.38;;;22.90;95.20;;;;;;6132703;23;20005;-89
2021/07/20 02:00:34;;;;;;;9.00;7.15;;;22.90;95.20;;;;;;6132944;23;20080;-90
2021/07/20 02:03:25;;;;;;;11.70;6.95;;;22.90;95.10;;;;;;6135002;23;20005;-89
2021/07/20 02:08:48;;;;;;;9.07;6.15;;;22.90;95.20;;;;;;6164336;23;20053;-89
2021/07/20 02:11:24;;;;;;;8.85;6.72;;;22.90;95.20;;;;;;6161434;23;20004;-90
2021/07/20 02:13:55;;;;;;;10.05;6.57;;;22.90;95.20;;;;;;6133508;23;20333;-90
2021/07/20 02:16:27;;;;;;;9.18;6.85;;;22.90;95.40;;;;;;6132667;23;20085;-90
2021/07/20 02:19:04;;;;;;;6.50;5.72;;;22.80;95.30;;;;;;6133535;23;20452;-89
2021/07/20 02:21:31;;;;;;;9.63;6.95;;;22.80;95.30;;;;;;6133314;23;20326;-90
2021/07/20 02:23:58;;;;;;;9.05;6.35;;;22.80;95.30;;;;;;6134812;23;20032;-90
2021/07/20 02:26:25;;;;;;;7.75;5.80;;;22.80;95.40;;;;;;6157234;23;20081;-89
2021/07/20 02:28:53;;;;;;;6.85;5.60;;;22.80;95.40;;;;;;6159696;23;20028;-90
2021/07/20 02:31:21;;;;;;;7.22;6.00;;;22.70;95.50;;;;;;6131847;23;20087;-89
2021/07/20 02:33:48;;;;;;;11.23;6.57;;;22.80;95.50;;;;;;6131964;23;20366;-89
2021/07/20 02:36:15;;;;;;;8.20;6.60;;;22.80;95.70;;;;;;6132383;23;19997;-90
2021/07/20 02:38:43;;;;;;;8.30;6.35;;;22.80;95.70;;;;;;6158302;23;20000;-89
2021/07/20 02:41:10;;;;;;;8.50;6.60;;;22.80;95.70;;;;;;6158715;23;20004;-90
2021/07/20 02:43:39;;;;;;;9.02;6.20;;;22.80;95.70;;;;;;6158007;23;20010;-90
2021/07/20 02:46:08;;;;;;;9.60;6.35;;;22.80;95.60;;;;;;6132113;23;20002;-89
2021/07/20 02:48:39;;;;;;;7.68;6.15;;;22.80;95.60;;;;;;6132775;23;20002;-90
2021/07/20 02:51:06;;;;;;;7.40;5.95;;;22.80;95.60;;;;;;6131942;23;20006;-89
2021/07/20 02:53:32;;;;;;;9.40;6.40;;;22.90;95.60;;;;;;6132640;23;20018;-89
2021/07/20 02:55:59;;;;;;;8.57;6.68;;;22.90;95.70;;;;;;6132604;23;20001;-89
2021/07/20 02:58:26;;;;;;;10.57;7.20;;;22.90;95.70;;;;;;6133889;23;20008;-89
2021/07/20 03:00:55;;;;;;;8.38;6.75;;;22.90;95.80;;;;;;6131792;23;20060;-89
2021/07/20 03:03:21;;;;;;;7.65;6.13;;;22.90;95.60;;;;;;6158183;23;19998;-89
2021/07/20 03:05:48;;;;;;;7.38;6.18;;;23.00;95.70;;;;;;6132220;23;20092;-90
2021/07/20 03:08:15;;;;;;;8.80;6.00;;;23.00;95.70;;;;;;6158201;23;19993;-90
2021/07/20 03:10:42;;;;;;;11.02;6.22;;;23.00;95.70;;;;;;6131981;23;19997;-89
2021/07/20 03:13:12;;;;;;;7.97;6.72;;;23.10;95.60;;;;;;6132375;23;20013;-90
2021/07/20 03:15:38;;;;;;;7.28;6.25;;;23.10;95.50;;;;;;6132127;23;20004;-89
2021/07/20 03:18:07;;;;;;;8.18;6.70;;;23.20;95.40;;;;;;6132986;23;20052;-90
2021/07/20 03:20:36;;;;;;;8.40;6.80;;;23.20;95.30;;;;;;6132135;23;20013;-88
2021/07/20 03:23:04;;;;;;;7.47;6.00;;;23.20;95.20;;;;;;6133995;23;20013;-89
2021/07/20 03:25:30;;;;;;;12.18;7.38;;;23.30;95.10;;;;;;6147787;23;20038;-90
2021/07/20 03:27:58;;;;;;;8.13;6.85;;;23.30;94.90;;;;;;6152327;23;20021;-89
2021/07/20 03:30:27;;;;;;;7.80;6.47;;;23.30;94.50;;;;;;6151532;23;20045;-89
2021/07/20 03:32:54;;;;;;;8.77;6.57;;;23.30;94.30;;;;;;6150125;23;20064;-89
2021/07/20 03:35:21;;;;;;;7.47;5.82;;;23.40;94.10;;;;;;6149366;23;20025;-89
2021/07/20 03:37:47;;;;;;;6.32;5.68;;;23.40;94.00;;;;;;6167721;23;19998;-89
2021/07/20 03:40:14;;;;;;;9.13;6.80;;;23.40;93.90;;;;;;6132770;23;20001;-90
2021/07/20 03:42:41;;;;;;;8.98;6.28;;;23.50;93.50;;;;;;6143235;23;20430;-89
2021/07/20 03:45:08;;;;;;;11.40;6.93;;;23.50;93.50;;;;;;6141839;23;20009;-89
2021/07/20 03:47:39;;;;;;;7.70;6.90;;;23.50;93.20;;;;;;6135776;23;20076;-90
2021/07/20 03:50:08;;;;;;;8.37;6.67;;;23.50;93.00;;;;;;6134704;23;20002;-90
2021/07/20 03:52:36;;;;;;;7.70;5.72;;;23.60;92.80;;;;;;6132352;23;20001;-90
2021/07/20 03:55:02;;;;;;;8.35;6.00;;;23.60;92.90;;;;;;6132608;23;20009;-90
2021/07/20 03:57:29;;;;;;;11.65;6.95;;;23.70;92.70;;;;;;6132586;23;20005;-90
2021/07/20 03:59:58;;;;;;;8.95;5.85;;;23.70;92.40;;;;;;6131242;23;20029;-90
2021/07/20 04:02:28;;;;;;;6.80;5.90;;;23.80;92.40;;;;;;6132286;23;20001;-89
2021/07/20 04:04:55;;;;;;;7.38;5.75;;;23.80;92.30;;;;;;6132263;23;20012;-90
2021/07/20 04:07:21;;;;;;;9.10;6.93;;;23.80;92.10;;;;;;6160662;23;20025;-90
2021/07/20 04:09:49;;;;;;;8.65;5.93;;;23.90;91.90;;;;;;6132436;23;20001;-89
2021/07/20 04:12:15;;;;;;;6.75;6.05;;;24.00;91.70;;;;;;6132052;23;20012;-90
2021/07/20 04:14:43;;;;;;;7.22;5.68;;;24.00;91.40;;;;;;6132165;23;20052;-89
2021/07/20 04:17:11;;;;;;;7.30;5.90;;;24.00;91.20;;;;;;6131988;23;20358;-90
2021/07/20 04:19:37;;;;;;;7.75;6.07;;;24.10;91.30;;;;;;6132386;23;20031;-90
2021/07/20 04:22:04;;;;;;;13.00;7.00;;;24.10;91.20;;;;;;6131604;23;20005;-90
2021/07/20 04:24:30;;;;;;;7.57;6.20;;;24.10;90.80;;;;;;6133696;23;20013;-90
2021/07/20 04:26:58;;;;;;;8.10;6.30;;;24.20;90.70;;;;;;6132047;23;20005;-89
2021/07/20 04:29:26;;;;;;;7.05;6.32;;;24.20;90.50;;;;;;6132830;23;20010;-91
2021/07/20 04:31:55;;;;;;;5.72;5.07;;;24.20;90.30;;;;;;6132500;23;20009;-90
2021/07/20 04:34:21;;;;;;;5.85;4.72;;;24.20;90.30;;;;;;6132977;23;20021;-91
2021/07/20 04:36:47;;;;;;;7.40;5.88;;;24.30;90.20;;;;;;6133537;23;19998;-91
2021/07/20 04:39:13;;;;;;;8.60;5.75;;;24.40;90.10;;;;;;6132898;23;20063;-90
2021/07/20 04:41:41;;;;;;;9.02;6.00;;;24.40;90.00;;;;;;6133259;23;20080;-90
2021/07/20 04:44:08;;;;;;;8.23;6.40;;;24.50;89.20;;;;;;6132413;23;20005;-90
2021/07/20 04:46:35;;;;;;;8.57;5.65;;;24.60;89.30;;;;;;6134109;23;20048;-89
2021/07/20 04:49:05;;;;;;;8.00;6.32;;;24.60;88.90;;;;;;6137363;23;20089;-90
2021/07/20 04:51:32;;;;;;;6.50;5.05;;;24.60;88.00;;;;;;6138685;23;20326;-90
2021/07/20 04:54:03;;;;;;;6.15;5.40;;;24.70;88.50;;;;;;6137274;23;20010;-90
2021/07/20 04:56:30;;;;;;;7.57;5.38;;;24.90;88.40;;;;;;6135886;23;19998;-90
2021/07/20 04:58:56;;;;;;;6.20;5.53;;;25.00;87.90;;;;;;6131849;23;20010;-91
2021/07/20 05:01:23;;;;;;;6.85;6.03;;;25.20;87.40;;;;;;6132833;23;20008;-89
2021/07/20 05:03:50;;;;;;;7.68;6.10;;;25.30;86.70;;;;;;6133084;23;20010;-90
2021/07/20 05:06:18;;;;;;;8.15;5.72;;;25.30;85.50;;;;;;6132809;23;20005;-90
2021/07/20 05:08:44;;;;;;;7.57;5.68;;;25.30;85.10;;;;;;6134209;23;20033;-91
2021/07/20 05:11:15;;;;;;;7.70;6.20;;;25.30;84.70;;;;;;6158411;23;20105;-91
2021/07/20 05:13:41;;;;;;;8.80;6.03;;;25.30;83.90;;;;;;6132134;23;20476;-89
2021/07/20 05:16:07;;;;;;;6.43;5.70;;;25.20;84.00;;;;;;6135360;23;20024;-90
2021/07/20 05:18:36;;;;;;;6.55;5.80;;;25.20;84.60;;;;;;6136317;23;20002;-93
2021/07/20 05:21:06;;;;;;;7.25;5.57;;;25.30;83.50;;;;;;6136295;23;20001;-90
2021/07/20 05:23:34;;;;;;;7.13;5.00;;;25.30;83.30;;;;;;6135448;23;20027;-90
2021/07/20 05:26:01;;;;;;;6.50;4.80;;;25.30;83.40;;;;;;6143915;23;20005;-91
2021/07/20 05:28:29;;;;;;;6.32;4.43;;;25.40;83.60;;;;;;6152249;23;20016;-90
2021/07/20 05:30:58;;;;;;;6.63;5.53;;;25.60;83.50;;;;;;6153131;23;20020;-90
2021/07/20 05:33:25;;;;;;;7.45;5.55;;;25.80;82.40;;;;;;6146754;23;20052;-90
2021/07/20 05:35:56;;;;;;;8.00;5.78;;;25.90;81.80;;;;;;6147241;23;20002;-90
2021/07/20 05:38:24;;;;;;;6.43;5.03;;;25.90;80.50;;;;;;6165560;23;20045;-89
2021/07/20 05:40:52;;;;;;;8.32;5.25;;;26.00;80.60;;;;;;6135991;23;20037;-90
2021/07/20 05:43:19;;;;;;;8.65;5.50;;;26.00;80.30;;;;;;6133383;23;20010;-90
2021/07/20 05:45:45;;;;;;;7.50;5.05;;;26.10;79.50;;;;;;6134477;23;20008;-90
2021/07/20 05:48:15;;;;;;;10.25;5.85;;;26.10;79.10;;;;;;6133678;23;20029;-89
2021/07/20 05:50:48;;;;;;;8.95;5.15;;;26.10;79.50;;;;;;6133554;23;20388;-90
2021/07/20 05:53:16;;;;;;;;;;;26.10;78.90;;;;;;6133195;23;20009;-90
2021/07/20 05:55:47;;;;;;;7.93;5.95;;;26.20;76.30;;;;;;6134238;23;19924;-91
2021/07/20 05:58:13;;;;;;;7.57;5.18;;;26.20;77.80;;;;;;6133203;23;20097;-90
2021/07/20 06:00:40;;;;;;;7.90;6.32;;;26.20;78.60;;;;;;6158852;23;20001;-89
2021/07/20 06:03:07;;;;;;;7.25;5.43;;;26.30;77.80;;;;;;6132855;23;20013;-90
2021/07/20 06:05:33;;;;;;;6.72;5.35;;;26.30;77.40;;;;;;6132580;23;19998;-90
2021/07/20 06:07:59;;;;;;;8.02;6.03;;;26.30;76.80;;;;;;6132879;23;20021;-90
2021/07/20 06:10:26;;;;;;;7.78;5.63;;;26.30;76.10;;;;;;6133259;23;20085;-90
2021/07/20 06:12:56;;;;;;;8.82;5.93;;;26.20;76.40;;;;;;6132421;23;19998;-90
2021/07/20 06:15:23;;;;;;;9.05;5.53;;;26.30;76.60;;;;;;6135144;23;20460;-90
2021/07/20 06:17:49;;;;;;;7.78;5.85;;;26.30;76.20;;;;;;6157811;23;20005;-90
2021/07/20 06:20:15;;;;;;;7.88;6.40;;;26.20;76.30;;;;;;6132647;23;20325;-90
2021/07/20 06:22:51;;;;;;;8.77;6.30;;;26.10;76.10;;;;;;6132552;23;20029;-90
2021/07/20 06:25:18;;;;;;;7.97;6.47;;;26.20;77.00;;;;;;6132673;23;20005;-90
2021/07/20 06:27:47;;;;;;;8.00;5.85;;;26.20;77.40;;;;;;6132203;23;20445;-90
2021/07/20 06:30:14;;;;;;;7.78;6.18;;;26.30;77.40;;;;;;6136192;23;20055;-90
2021/07/20 06:32:41;;;;;;;9.38;6.93;;;26.40;76.70;;;;;;6133923;23;20021;-90
2021/07/20 06:35:11;;;;;;;8.40;6.97;;;26.40;76.50;;;;;;6159958;23;20045;-90
2021/07/20 06:37:37;;;;;;;7.63;6.68;;;26.40;76.80;;;;;;6133381;23;20001;-91
2021/07/20 06:40:04;;;;;;;8.57;6.53;;;26.40;77.10;;;;;;6159344;23;20060;-89
2021/07/20 06:42:31;;;;;;;10.23;6.70;;;26.40;76.70;;;;;;6132550;23;20012;-90
2021/07/20 06:44:57;;;;;;;9.80;7.28;;;26.40;76.50;;;;;;6133211;23;20313;-90
2021/07/20 06:47:23;;;;;;;9.65;6.53;;;26.40;75.80;;;;;;6158222;23;20033;-90
2021/07/20 06:49:49;;;;;;;7.57;5.88;;;26.40;76.10;;;;;;6132653;23;20033;-90
2021/07/20 06:52:16;;;;;;;6.47;5.18;;;26.50;76.50;;;;;;6133851;23;20005;-90
2021/07/20 06:54:44;;;;;;;7.00;5.75;;;26.70;76.50;;;;;;6131259;23;20041;-91
2021/07/20 06:57:16;;;;;;;7.15;6.00;;;27.00;76.40;;;;;;6133711;23;20002;-90
2021/07/20 06:59:42;;;;;;;6.68;5.78;;;27.10;74.50;;;;;;6131228;23;20006;-90
2021/07/20 07:02:15;;;;;;;8.25;5.75;;;27.20;74.40;;;;;;6130302;23;20088;-90
2021/07/20 07:04:47;;;;;;;7.35;5.63;;;27.30;74.10;;;;;;6131455;23;20005;-91
2021/07/20 07:07:15;;;;;;;5.80;4.78;;;27.50;73.70;;;;;;6158680;23;20005;-92
2021/07/20 07:09:42;;;;;;;8.57;6.25;;;27.60;73.70;;;;;;6156732;23;20010;-92
2021/07/20 07:12:10;;;;;;;6.90;6.20;;;27.70;72.50;;;;;;6106472;23;20006;-90
2021/07/20 07:14:37;;;;;;;9.75;6.13;;;27.70;71.50;;;;;;6130286;23;20025;-91
2021/07/20 07:17:03;;;;;;;6.82;5.60;;;27.60;71.60;;;;;;6128541;23;20363;-93
2021/07/20 07:19:31;;;;;;;7.07;5.90;;;27.60;71.90;;;;;;6157253;23;20052;-93
2021/07/20 07:22:03;;;;;;;6.70;5.60;;;27.70;72.10;;;;;;6131329;23;20141;-92
2021/07/20 07:24:30;;;;;;;12.27;5.70;;;27.80;71.20;;;;;;6130439;23;20009;-93
2021/07/20 07:27:00;;;;;;;7.30;5.97;;;27.80;71.10;;;;;;6130553;23;20009;-92
2021/07/20 07:29:27;;;;;;;5.85;5.25;;;27.80;71.10;;;;;;6130788;23;20039;-93
2021/07/20 07:31:55;;;;;;;7.45;6.53;;;28.00;71.30;;;;;;6135772;23;20010;-91
2021/07/20 07:34:23;;;;;;;6.97;5.88;;;28.10;70.70;;;;;;6172328;23;20041;-90
2021/07/20 07:36:51;;;;;;;8.55;6.78;;;28.10;70.00;;;;;;6147519;23;20064;-92
2021/07/20 07:39:23;;;;;;;9.25;6.10;;;28.10;68.80;;;;;;6150936;23;20005;-93
2021/07/20 07:41:53;;;;;;;8.35;5.70;;;28.10;68.70;;;;;;6126649;23;20006;-91
2021/07/20 07:44:20;;;;;;;8.23;6.07;;;28.10;69.40;;;;;;6145082;23;20414;-95
2021/07/20 07:46:49;;;;;;;9.48;6.38;;;28.10;68.80;;;;;;6142780;23;20001;-93
2021/07/20 07:49:16;;;;;;;6.70;5.68;;;28.20;68.20;;;;;;6146876;23;20065;-92
2021/07/20 07:51:45;;;;;;;8.05;6.07;;;28.10;68.10;;;;;;6140260;23;20001;-92
2021/07/20 07:54:12;;;;;;;8.00;5.43;;;28.10;68.00;;;;;;6166361;23;20009;-93
2021/07/20 07:56:38;;;;;;;7.43;5.35;;;28.20;69.00;;;;;;6137476;23;20489;-92
2021/07/20 07:59:08;;;;;;;7.18;6.00;;;28.40;69.30;;;;;;6134003;23;20013;-93
2021/07/20 08:01:38;;;;;;;10.88;6.28;;;28.50;68.70;;;;;;6159200;23;19994;-91
2021/07/20 08:04:09;;;;;;;6.63;5.90;;;28.60;67.40;;;;;;6133203;23;20719;-94
2021/07/20 08:06:35;;;;;;;10.38;5.82;;;28.70;68.20;;;;;;6131468;23;20005;-92
2021/07/20 08:09:03;;;;;;;6.63;5.20;;;28.70;67.80;;;;;;6130860;23;20398;-94
2021/07/20 08:11:30;;;;;;;6.25;5.65;;;28.90;67.90;;;;;;6130271;23;20017;-92
2021/07/20 08:13:59;;;;;;;8.65;5.65;;;29.00;67.40;;;;;;6129467;23;20036;-91
2021/07/20 08:16:28;;;;;;;6.85;5.90;;;29.00;66.70;;;;;;6129277;23;20002;-92
2021/07/20 08:19:00;;;;;;;8.93;6.70;;;29.00;66.50;;;;;;6156817;23;20079;-92
2021/07/20 08:21:28;;;;;;;8.27;5.97;;;28.90;66.60;;;;;;6129046;23;20005;-92
2021/07/20 08:23:55;;;;;;;7.05;6.35;;;28.90;66.80;;;;;;6127848;23;20087;-91
2021/07/20 08:26:29;;;;;;;6.97;6.22;;;28.90;67.30;;;;;;6129721;23;20006;-93
2021/07/20 08:29:01;;;;;;;6.80;5.93;;;28.90;66.60;;;;;;6128404;23;20152;-93
2021/07/20 08:31:32;;;;;;;9.88;6.50;;;29.00;66.40;;;;;;6153552;23;20009;-90
2021/07/20 08:34:11;;;;;;;8.63;6.65;;;29.10;65.90;;;;;;6127844;23;20342;-91
2021/07/20 08:36:41;;;;;;;7.95;5.85;;;29.10;65.00;;;;;;6125124;23;20012;-91
2021/07/20 08:39:10;;;;;;;9.80;6.22;;;29.10;65.90;;;;;;6130855;23;20006;-92
2021/07/20 08:42:05;;;;;;;7.45;6.03;;;29.20;65.50;;;;;;6132031;23;20433;-92
2021/07/20 08:44:52;;;;;;;9.50;6.25;;;29.30;64.10;;;;;;6130835;23;20079;-92
2021/07/20 08:47:24;;;;;;;6.68;5.97;;;29.30;64.50;;;;;;6158869;23;20139;-92
2021/07/20 08:50:14;;;;;;;8.07;6.28;;;29.30;64.30;;;;;;6131114;23;20001;-94
2021/07/20 08:52:47;;;;;;;7.32;6.40;;;29.40;63.70;;;;;;6132055;23;20053;-94
2021/07/20 08:55:28;;;;;;;6.22;5.40;;;29.30;63.50;;;;;;6133124;23;20040;-92
2021/07/20 08:58:04;;;;;;;7.90;5.50;;;29.40;64.10;;;;;;6132767;23;19998;-93
2021/07/20 09:00:42;;;;;;;5.88;5.28;;;29.60;64.10;;;;;;6140597;23;20006;-94
2021/07/20 09:03:32;;;;;;;5.78;4.70;;;29.70;63.70;;;;;;6137776;23;20021;-92
2021/07/20 09:06:18;;;;;;;7.32;5.03;;;29.90;62.70;;;;;;6160926;23;20001;-91
2021/07/20 09:09:18;;;;;;;6.28;5.57;;;30.10;61.50;;;;;;6136611;23;20013;-92
2021/07/20 09:12:09;;;;;;;6.88;5.07;;;30.20;59.80;;;;;;6137357;23;20129;-91
2021/07/20 09:14:36;;;;;;;7.25;5.43;;;30.20;60.70;;;;;;6137667;23;20009;-91
2021/07/20 09:17:39;;;;;;;7.32;5.28;;;30.20;60.90;;;;;;6138823;23;20061;-92
2021/07/20 09:20:07;;;;;;;6.45;5.50;;;30.20;60.60;;;;;;6133219;23;20006;-92
2021/07/20 09:22:52;;;;;;;10.10;5.38;;;30.20;59.90;;;;;;6156203;23;20077;-92
2021/07/20 09:25:27;;;;;;;6.07;5.47;;;30.10;59.70;;;;;;6129702;23;20092;-91
2021/07/20 09:28:34;;;;;;;5.80;4.93;;;30.00;58.70;;;;;;6125985;23;20009;-92
2021/07/20 09:31:06;;;;;;;6.68;5.63;;;30.00;57.20;;;;;;6131189;23;20112;-92
2021/07/20 09:33:53;;;;;;;8.68;6.30;;;30.10;59.30;;;;;;6129533;23;20072;-92
2021/07/20 09:36:33;;;;;;;6.88;5.30;;;30.10;58.70;;;;;;6129339;23;20010;-93
2021/07/20 09:39:11;;;;;;;7.60;5.60;;;30.00;58.20;;;;;;6133543;23;20021;-93
2021/07/20 09:41:54;;;;;;;7.18;5.30;;;30.10;58.50;;;;;;6146735;23;20023;-94
2021/07/20 09:44:51;;;;;;;8.23;5.30;;;30.00;58.50;;;;;;6151088;23;19993;-92
2021/07/20 09:47:58;;;;;;;8.35;5.15;;;30.00;57.50;;;;;;6149586;23;20012;-92
2021/07/20 09:50:26;;;;;;;6.50;5.28;;;29.90;58.00;;;;;;6150495;23;20008;-90
2021/07/20 09:53:29;;;;;;;5.47;4.97;;;29.80;58.00;;;;;;6143850;23;20030;-91
2021/07/20 09:56:35;;;;;;;6.55;4.68;;;29.80;58.30;;;;;;6139885;23;20072;-93
2021/07/20 09:59:28;;;;;;;5.75;4.90;;;29.80;59.00;;;;;;6137951;23;20476;-91
2021/07/20 10:01:59;;;;;;;6.13;5.53;;;29.90;59.00;;;;;;6137590;23;20084;-91
2021/07/20 10:04:40;;;;;;;7.68;4.30;;;29.90;59.30;;;;;;6132758;23;20056;-91
2021/07/20 10:07:09;;;;;;;7.63;4.75;;;30.00;58.70;;;;;;6134111;23;20009;-92
2021/07/20 10:09:48;;;;;;;5.50;4.60;;;30.00;59.50;;;;;;6133808;23;20414;-92
2021/07/20 10:12:35;;;;;;;7.68;5.68;;;30.10;58.80;;;;;;6133752;23;20007;-93
2021/07/20 10:15:07;;;;;;;5.40;4.85;;;30.10;59.00;;;;;;6132888;23;20025;-91
2021/07/20 10:17:56;;;;;;;5.40;4.90;;;30.20;58.80;;;;;;6134584;23;20565;-92
2021/07/20 10:20:31;;;;;;;4.93;4.15;;;30.40;59.00;;;;;;6137654;23;19998;-93
2021/07/20 10:23:17;;;;;;;7.00;5.00;;;30.60;59.10;;;;;;6145279;23;20005;-92
2021/07/20 10:25:48;;;;;;;7.88;5.50;;;30.90;57.10;;;;;;6142871;23;20009;-92
2021/07/20 10:28:15;;;;;;;5.50;4.70;;;30.90;56.50;;;;;;6131929;23;20009;-93
2021/07/20 10:31:07;;;;;;;6.15;4.70;;;30.90;57.10;;;;;;6131139;23;20087;-91
2021/07/20 10:33:44;;;;;;;5.60;4.78;;;30.90;55.40;;;;;;6125753;23;20028;-92
2021/07/20 10:36:20;;;;;;;5.18;4.35;;;30.90;57.00;;;;;;6101694;23;19998;-92
2021/07/20 10:38:52;;;;;;;6.43;5.68;;;31.10;57.10;;;;;;6127888;23;20025;-92
2021/07/20 10:41:43;;;;;;;6.47;5.50;;;31.30;56.60;;;;;;6100834;23;20505;-94
2021/07/20 10:44:13;;;;;;;5.63;4.82;;;31.30;55.60;;;;;;6102846;23;20430;-94
2021/07/20 10:46:41;;;;;;;5.07;4.60;;;31.30;56.50;;;;;;6103448;23;20033;-92
2021/07/20 10:49:32;;;;;;;4.43;4.03;;;31.30;56.40;;;;;;6104640;23;20314;-91
2021/07/20 10:52:20;;;;;;;7.53;5.00;;;31.50;56.90;;;;;;6102744;23;20009;-94
2021/07/20 10:54:55;;;;;;;4.88;4.38;;;31.70;54.60;;;;;;6102743;23;20082;-92
2021/07/20 10:57:27;;;;;;;5.80;4.10;;;31.90;56.20;;;;;;6102198;23;20057;-94
2021/07/20 11:00:11;;;;;;;9.43;6.03;;;32.00;55.70;;;;;;6102245;23;20006;-93
2021/07/20 11:02:58;;;;;;;6.70;4.97;;;32.20;52.80;;;;;;6129975;23;20312;-93
2021/07/20 11:05:28;;;;;;;6.53;5.00;;;32.20;54.30;;;;;;6102653;23;20088;-93
2021/07/20 11:08:06;;;;;;;5.20;4.70;;;32.30;54.30;;;;;;6102111;23;20374;-93
2021/07/20 11:10:42;;;;;;;5.85;4.68;;;32.30;53.80;;;;;;6102920;23;20003;-92
2021/07/20 11:13:13;;;;;;;6.03;4.75;;;32.40;54.50;;;;;;6102268;23;20013;-91
2021/07/20 11:15:41;;;;;;;4.72;4.32;;;32.60;54.40;;;;;;6103028;23;20353;-92
2021/07/20 11:18:13;;;;;;;5.32;4.82;;;32.80;53.80;;;;;;6127875;23;20052;-92
2021/07/20 11:20:45;;;;;;;4.90;4.30;;;32.80;53.20;;;;;;6102805;23;20042;-92
2021/07/20 11:23:15;;;;;;;4.82;4.30;;;32.80;53.40;;;;;;6106439;23;20387;-90
2021/07/20 11:25:41;;;;;;;5.32;4.80;;;32.80;53.70;;;;;;6104448;23;20366;-91
2021/07/20 11:28:07;;;;;;;7.53;5.35;;;32.90;53.90;;;;;;6102337;23;20002;-91
2021/07/20 11:30:39;;;;;;;5.70;4.47;;;33.00;53.30;;;;;;6102976;23;20422;-90
2021/07/20 11:33:11;;;;;;;5.45;4.63;;;33.00;53.40;;;;;;6109851;23;20406;-91
2021/07/20 11:35:39;;;;;;;;;;;33.20;53.60;;;;;;6168396;23;20024;-90
2021/07/20 11:38:12;;;;;;;4.22;3.85;;;33.30;53.20;;;;;;6140580;23;19901;-91
2021/07/20 11:40:48;;;;;;;4.63;4.20;;;33.50;53.60;;;;;;6155339;23;20012;-93
2021/07/20 11:43:22;;;;;;;4.88;4.38;;;33.60;53.20;;;;;;6150542;23;20114;-92
2021/07/20 11:46:06;;;;;;;6.13;4.95;;;33.70;53.10;;;;;;6151923;23;20002;-93
2021/07/20 11:48:53;;;;;;;5.90;5.30;;;33.80;50.40;;;;;;6162409;23;20199;-94
2021/07/20 11:51:24;;;;;;;5.60;5.07;;;33.60;51.40;;;;;;6144767;23;19994;-92
2021/07/20 11:54:18;;;;;;;5.93;5.25;;;33.40;52.30;;;;;;6173528;23;20020;-93
2021/07/20 11:56:58;;;;;;;6.15;5.35;;;33.40;52.40;;;;;;6176073;23;20025;-93
2021/07/20 12:00:05;;;;;;;5.50;4.95;;;33.40;52.70;;;;;;6176197;23;20054;-92
2021/07/20 12:03:11;;;;;;;5.32;4.82;;;33.30;53.20;;;;;;6162589;23;20317;-92
2021/07/20 12:05:54;;;;;;;5.78;5.07;;;33.40;51.90;;;;;;6154800;23;20002;-92
2021/07/20 12:08:31;;;;;;;5.30;4.80;;;33.40;51.60;;;;;;6131261;23;20002;-92
2021/07/20 12:11:21;;;;;;;5.95;5.35;;;33.40;52.90;;;;;;6154191;23;20010;-93
2021/07/20 12:13:48;;;;;;;5.13;4.63;;;33.70;52.60;;;;;;6151898;23;20006;-92
2021/07/20 12:16:16;;;;;;;5.53;5.00;;;33.90;53.70;;;;;;6128843;23;20009;-93
2021/07/20 12:18:54;;;;;;;7.65;4.60;;;34.20;51.80;;;;;;6150494;23;20005;-92
2021/07/20 12:21:21;;;;;;;8.93;4.72;;;34.30;51.10;;;;;;6151392;23;20005;-92
2021/07/20 12:23:51;;;;;;;4.90;4.50;;;34.40;50.90;;;;;;6150729;23;20419;-90
2021/07/20 12:26:22;;;;;;;6.10;4.63;;;34.50;50.30;;;;;;6152030;23;20006;-91
2021/07/20 12:28:53;;;;;;;5.82;5.28;;;34.40;50.30;;;;;;6126438;23;20044;-91
2021/07/20 12:31:19;;;;;;;5.65;4.28;;;34.40;51.00;;;;;;6150687;23;20010;-91
2021/07/20 12:34:04;;;;;;;5.47;4.78;;;34.30;50.80;;;;;;6156525;23;20020;-91
2021/07/20 12:36:30;;;;;;;4.63;4.22;;;34.30;49.50;;;;;;6131037;23;20005;-91
2021/07/20 12:39:19;;;;;;;5.55;4.43;;;34.20;50.60;;;;;;6131329;23;20422;-90
2021/07/20 12:41:55;;;;;;;5.20;4.70;;;34.50;50.90;;;;;;6131209;23;20076;-92
2021/07/20 12:44:23;;;;;;;4.95;4.55;;;34.90;49.60;;;;;;6134925;23;20006;-92
2021/07/20 12:46:50;;;;;;;4.55;4.07;;;35.30;50.50;;;;;;6135148;23;20405;-89
2021/07/20 12:49:17;;;;;;;7.25;4.50;;;35.60;50.10;;;;;;6137615;23;20001;-90
2021/07/20 12:51:50;;;;;;;6.93;4.55;;;35.90;49.60;;;;;;6143101;23;20021;-91
2021/07/20 12:54:34;;;;;;;5.43;4.82;;;36.00;48.90;;;;;;6139802;23;20041;-92
2021/07/20 12:57:01;;;;;;;4.13;3.72;;;36.10;49.00;;;;;;6129727;23;20029;-91
2021/07/20 12:59:27;;;;;;;6.88;4.53;;;36.40;49.50;;;;;;6130652;23;20040;-91
2021/07/20 13:01:57;;;;;;;5.18;4.68;;;36.90;48.60;;;;;;6157222;23;20409;-91
2021/07/20 13:04:23;;;;;;;5.93;5.43;;;37.30;47.30;;;;;;6159127;23;20077;-92
2021/07/20 13:06:53;;;;;;;5.18;4.68;;;37.40;47.10;;;;;;6157812;23;20004;-91
2021/07/20 13:09:20;;;;;;;5.45;4.28;;;37.50;46.90;;;;;;6134457;23;20002;-92